Time,TemperatureF,DewpointF,PressureIn,WindDirection,WindDirectionDegrees,WindSpeedMPH,WindSpeedGustMPH,Humidity,HourlyPrecipIn,Conditions,Clouds,dailyrainin,SolarRadiationWatts/m^2,SoftwareType,DateUTC
2013-10-10 03:22:00,32.0,27.0,-100.00,NNE,16,4.0,12.0,81,-99.99,,,0.00,0.000000,,2013-10-10 09:22:00,
2013-10-10 03:33:00,32.0,27.0,-100.00,NNE,16,4.0,12.0,81,-99.99,,,0.00,0.000000,,2013-10-10 09:33:00,
2013-10-10 03:43:00,32.0,27.0,-100.00,NNE,16,4.0,12.0,81,-99.99,,,0.00,0.000000,,2013-10-10 09:43:00,
2013-10-10 03:53:00,32.0,27.0,-100.00,NNE,16,4.0,12.0,81,-99.99,,,0.00,0.000000,,2013-10-10 09:53:00,
2013-10-10 04:23:00,32.0,27.0,-100.00,NE,38,3.0,8.0,81,0.00,,,0.00,0.000000,,2013-10-10 10:23:00,
2013-10-10 04:32:00,32.0,27.0,-100.00,NE,38,3.0,8.0,81,0.00,,,0.00,0.000000,,2013-10-10 10:32:00,
2013-10-10 04:42:00,32.0,27.0,-100.00,NE,38,3.0,8.0,81,0.00,,,0.00,0.000000,,2013-10-10 10:42:00,
2013-10-10 04:53:00,32.0,27.0,-100.00,NE,38,3.0,8.0,81,0.00,,,0.00,0.000000,,2013-10-10 10:53:00,
2013-10-10 08:21:00,32.0,27.0,-100.00,NNE,22,4.0,7.0,80,-99.99,,,-99.99,8.000000,,2013-10-10 14:21:00,
2013-10-10 08:32:00,32.0,27.0,-100.00,NNE,22,4.0,7.0,80,-99.99,,,-99.99,8.000000,,2013-10-10 14:32:00,
2013-10-10 08:42:00,32.0,27.0,-100.00,NNE,22,4.0,7.0,80,-99.99,,,-99.99,8.000000,,2013-10-10 14:42:00,
2013-10-10 08:52:00,32.0,27.0,-100.00,NNE,22,4.0,7.0,80,-99.99,,,-99.99,8.000000,,2013-10-10 14:52:00,
2013-10-10 09:22:00,35.0,28.0,-100.00,NNE,17,3.0,8.0,75,0.00,,,0.00,51.000000,,2013-10-10 15:22:00,
2013-10-10 09:33:00,35.0,28.0,-100.00,NNE,17,3.0,8.0,75,0.00,,,0.00,51.000000,,2013-10-10 15:33:00,
2013-10-10 09:43:00,35.0,28.0,-100.00,NNE,17,3.0,8.0,75,0.00,,,0.00,51.000000,,2013-10-10 15:43:00,
2013-10-10 09:54:00,35.0,28.0,-100.00,NNE,17,3.0,8.0,75,0.00,,,0.00,51.000000,,2013-10-10 15:54:00,
2013-10-10 10:23:00,40.0,31.0,-100.00,North,10,2.0,6.0,70,0.00,,,0.00,118.000000,,2013-10-10 16:23:00,
2013-10-10 10:33:00,40.0,31.0,-100.00,North,10,2.0,6.0,70,0.00,,,0.00,118.000000,,2013-10-10 16:33:00,
2013-10-10 10:42:00,40.0,31.0,-100.00,North,10,2.0,6.0,70,0.00,,,0.00,118.000000,,2013-10-10 16:42:00,
2013-10-10 10:53:00,40.0,31.0,-100.00,North,10,2.0,6.0,70,0.00,,,0.00,118.000000,,2013-10-10 16:53:00,
2013-10-10 11:23:00,45.0,31.0,-100.00,North,11,3.0,7.0,58,0.00,,,0.00,172.000000,,2013-10-10 17:23:00,
2013-10-10 11:33:00,45.0,31.0,-100.00,North,11,3.0,7.0,58,0.00,,,0.00,172.000000,,2013-10-10 17:33:00,
2013-10-10 11:42:00,45.0,31.0,-100.00,North,11,3.0,7.0,58,0.00,,,0.00,172.000000,,2013-10-10 17:42:00,
2013-10-10 11:52:00,45.0,31.0,-100.00,North,11,3.0,7.0,58,0.00,,,0.00,172.000000,,2013-10-10 17:52:00,
2013-10-10 12:21:00,49.0,29.0,-100.00,NE,39,0.0,5.0,46,0.00,,,0.00,166.000000,,2013-10-10 18:21:00,
2013-10-10 12:32:00,49.0,29.0,-100.00,NE,39,0.0,5.0,46,0.00,,,0.00,166.000000,,2013-10-10 18:32:00,
2013-10-10 12:42:00,49.0,29.0,-100.00,NE,39,0.0,5.0,46,0.00,,,0.00,166.000000,,2013-10-10 18:42:00,
2013-10-10 12:52:00,49.0,29.0,-100.00,NE,39,0.0,5.0,46,0.00,,,0.00,166.000000,,2013-10-10 18:52:00,
2013-10-10 13:22:00,48.0,30.0,-100.00,SSW,192,3.0,8.0,49,0.00,,,0.00,98.000000,,2013-10-10 19:22:00,
2013-10-10 13:32:00,48.0,30.0,-100.00,SSW,192,3.0,8.0,49,0.00,,,0.00,98.000000,,2013-10-10 19:32:00,
2013-10-10 13:42:00,48.0,30.0,-100.00,SSW,192,3.0,8.0,49,0.00,,,0.00,98.000000,,2013-10-10 19:42:00,
2013-10-10 13:52:00,48.0,30.0,-100.00,SSW,192,3.0,8.0,49,0.00,,,0.00,98.000000,,2013-10-10 19:52:00,
2013-10-10 14:22:00,48.0,27.0,-100.00,ESE,123,5.0,9.0,44,0.00,,,0.00,62.000000,,2013-10-10 20:22:00,
2013-10-10 14:32:00,48.0,27.0,-100.00,ESE,123,5.0,9.0,44,0.00,,,0.00,62.000000,,2013-10-10 20:32:00,
2013-10-10 14:42:00,48.0,27.0,-100.00,ESE,123,5.0,9.0,44,0.00,,,0.00,62.000000,,2013-10-10 20:42:00,
2013-10-10 14:52:00,48.0,27.0,-100.00,ESE,123,5.0,9.0,44,0.00,,,0.00,62.000000,,2013-10-10 20:52:00,
2013-10-10 15:22:00,50.0,28.0,-100.00,South,189,6.0,18.0,42,0.00,,,0.00,132.000000,,2013-10-10 21:22:00,
2013-10-10 15:34:00,50.0,28.0,-100.00,South,189,6.0,18.0,42,0.00,,,0.00,132.000000,,2013-10-10 21:34:00,
2013-10-10 15:43:00,50.0,28.0,-100.00,South,189,6.0,18.0,42,0.00,,,0.00,132.000000,,2013-10-10 21:43:00,
2013-10-10 15:54:00,50.0,28.0,-100.00,South,189,6.0,18.0,42,0.00,,,0.00,132.000000,,2013-10-10 21:54:00,
2013-10-10 16:43:00,34.0,31.0,-100.00,ESE,118,6.0,33.0,90,0.01,,,0.01,68.000000,,2013-10-10 22:43:00,
2013-10-10 16:53:00,34.0,31.0,-100.00,ESE,118,6.0,33.0,90,0.01,,,0.01,68.000000,,2013-10-10 22:53:00,
2013-10-10 17:23:00,35.0,33.0,-100.00,SE,136,5.0,15.0,91,0.04,,,0.05,46.000000,,2013-10-10 23:23:00,
2013-10-10 17:33:00,35.0,33.0,-100.00,SE,136,5.0,15.0,91,0.04,,,0.05,46.000000,,2013-10-10 23:33:00,
2013-10-10 17:43:00,35.0,33.0,-100.00,SE,136,5.0,15.0,91,0.04,,,0.05,46.000000,,2013-10-10 23:43:00,
2013-10-10 17:52:00,35.0,33.0,-100.00,SE,136,5.0,15.0,91,0.04,,,0.05,46.000000,,2013-10-10 23:52:00,
2013-10-10 18:22:00,33.0,31.0,-100.00,South,176,5.0,10.0,93,0.01,,,0.06,20.000000,,2013-10-11 00:22:00,
2013-10-10 18:32:00,33.0,31.0,-100.00,South,176,5.0,10.0,93,0.01,,,0.06,20.000000,,2013-10-11 00:32:00,
2013-10-10 18:42:00,33.0,31.0,-100.00,South,176,5.0,10.0,93,0.01,,,0.06,20.000000,,2013-10-11 00:42:00,
2013-10-10 18:52:00,33.0,31.0,-100.00,South,176,5.0,10.0,93,0.01,,,0.06,20.000000,,2013-10-11 00:52:00,
2013-10-10 19:22:00,32.0,31.0,-100.00,ENE,74,4.0,11.0,95,0.00,,,0.06,2.000000,,2013-10-11 01:22:00,
2013-10-10 19:32:00,32.0,31.0,-100.00,ENE,74,4.0,11.0,95,0.00,,,0.06,2.000000,,2013-10-11 01:32:00,
2013-10-10 19:42:00,32.0,31.0,-100.00,ENE,74,4.0,11.0,95,0.00,,,0.06,2.000000,,2013-10-11 01:42:00,
2013-10-10 19:52:00,32.0,31.0,-100.00,ENE,74,4.0,11.0,95,0.00,,,0.06,2.000000,,2013-10-11 01:52:00,
2013-10-10 20:22:00,32.0,30.0,-100.00,SW,223,2.0,8.0,92,0.00,,,0.06,0.000000,,2013-10-11 02:22:00,
2013-10-10 20:32:00,32.0,30.0,-100.00,SW,223,2.0,8.0,92,0.00,,,0.06,0.000000,,2013-10-11 02:32:00,
2013-10-10 20:42:00,32.0,30.0,-100.00,SW,223,2.0,8.0,92,0.00,,,0.06,0.000000,,2013-10-11 02:42:00,
2013-10-10 20:52:00,32.0,30.0,-100.00,SW,223,2.0,8.0,92,0.00,,,0.06,0.000000,,2013-10-11 02:52:00,
2013-10-10 21:23:00,32.0,30.0,-100.00,SSE,168,4.0,5.0,94,0.00,,,0.06,0.000000,,2013-10-11 03:23:00,
2013-10-10 21:34:00,32.0,30.0,-100.00,SSE,168,4.0,5.0,94,0.00,,,0.06,0.000000,,2013-10-11 03:34:00,
2013-10-10 21:44:00,32.0,30.0,-100.00,SSE,168,4.0,5.0,94,0.00,,,0.06,0.000000,,2013-10-11 03:44:00,
2013-10-10 21:54:00,32.0,30.0,-100.00,SSE,168,4.0,5.0,94,0.00,,,0.06,0.000000,,2013-10-11 03:54:00,
2013-10-10 22:24:00,32.0,30.0,-100.00,SSE,168,5.0,11.0,94,0.00,,,0.06,0.000000,,2013-10-11 04:24:00,
2013-10-10 22:34:00,32.0,30.0,-100.00,SSE,168,5.0,11.0,94,0.00,,,0.06,0.000000,,2013-10-11 04:34:00,
2013-10-10 22:44:00,32.0,30.0,-100.00,SSE,168,5.0,11.0,94,0.00,,,0.06,0.000000,,2013-10-11 04:44:00,
2013-10-10 22:53:00,32.0,30.0,-100.00,SSE,168,5.0,11.0,94,0.00,,,0.06,0.000000,,2013-10-11 04:53:00,
2013-10-10 23:23:00,32.0,30.0,-100.00,SSE,166,5.0,12.0,94,0.00,,,0.06,0.000000,,2013-10-11 05:23:00,
2013-10-10 23:34:00,32.0,30.0,-100.00,SSE,166,5.0,12.0,94,0.00,,,0.06,0.000000,,2013-10-11 05:34:00,
2013-10-10 23:43:00,32.0,30.0,-100.00,SSE,166,5.0,12.0,94,0.00,,,0.06,0.000000,,2013-10-11 05:43:00,
2013-10-10 23:52:00,32.0,30.0,-100.00,SSE,166,5.0,12.0,94,0.00,,,0.06,0.000000,,2013-10-11 05:52:00,